Time;durP1;ratioP1;P1;durP2;ratioP2;P2;SDS_P1;SDS_P2;PMS_P1;PMS_P2;Temp;Humidity;BMP_temperature;BMP_pressure;BME280_temperature;BME280_humidity;BME280_pressure;Samples;Min_cycle;Max_cycle;Signal;HPM_P1;HPM_P2
2022/06/21 00:01:03;;;;;;;5.83;1.50;;;;;;;14.79;100.00;101727.38;5023453;28;20717;-64
2022/06/21 00:03:29;;;;;;;3.37;0.87;;;;;;;14.87;100.00;101714.53;5023847;28;20462;-64
2022/06/21 00:05:55;;;;;;;5.27;1.53;;;;;;;14.69;100.00;101715.13;5023785;28;20283;-64
2022/06/21 00:08:24;;;;;;;5.37;1.57;;;;;;;14.69;100.00;101712.41;5021208;28;20453;-64
2022/06/21 00:10:51;;;;;;;4.03;1.37;;;;;;;14.64;100.00;101714.88;5025201;28;20951;-64
2022/06/21 00:13:29;;;;;;;4.50;1.10;;;;;;;14.62;100.00;101702.63;5021924;28;20808;-64
2022/06/21 00:15:59;;;;;;;2.93;1.20;;;;;;;14.56;100.00;101700.75;5020378;28;20562;-64
2022/06/21 00:18:28;;;;;;;2.93;1.20;;;;;;;14.56;100.00;101698.06;5021245;28;20452;-64
2022/06/21 00:20:54;;;;;;;4.87;1.20;;;;;;;14.43;100.00;101682.59;5019770;28;21078;-64
2022/06/21 00:23:23;;;;;;;3.70;1.23;;;;;;;14.62;100.00;101713.44;5023460;28;20526;-64
2022/06/21 00:25:49;;;;;;;3.07;1.20;;;;;;;14.44;100.00;101682.41;5023122;28;20468;-64
2022/06/21 00:28:16;;;;;;;2.63;1.00;;;;;;;14.66;100.00;101715.50;5022770;28;20849;-64
2022/06/21 00:30:42;;;;;;;5.43;1.43;;;;;;;14.76;100.00;101720.53;5022163;28;20192;-64
2022/06/21 00:33:15;;;;;;;7.80;1.73;;;;;;;14.15;100.00;101621.50;5022715;28;20531;-62
2022/06/21 00:35:46;;;;;;;2.90;1.00;;;;;;;14.80;100.00;101726.34;5022266;28;20471;-63
2022/06/21 00:38:18;;;;;;;5.07;1.47;;;;;;;14.79;100.00;101730.09;5025913;28;20539;-63
2022/06/21 00:40:43;;;;;;;2.90;1.40;;;;;;;14.81;100.00;101728.00;5025025;28;20447;-64
2022/06/21 00:43:16;;;;;;;4.70;1.40;;;;;;;14.78;100.00;101733.81;5024223;28;20508;-64
2022/06/21 00:45:45;;;;;;;3.40;1.13;;;;;;;14.54;100.00;101722.53;5027393;28;20290;-64
2022/06/21 00:48:16;;;;;;;9.83;1.50;;;;;;;14.59;100.00;101720.06;5026671;28;20459;-64
2022/06/21 00:50:45;;;;;;;3.50;1.20;;;;;;;14.61;100.00;101717.16;5025675;28;20447;-64
2022/06/21 00:53:18;;;;;;;4.93;2.17;;;;;;;14.62;100.00;101716.13;5023537;28;20550;-64
2022/06/21 00:56:11;;;;;;;2.43;1.20;;;;;;;14.68;100.00;101718.84;5029644;28;21037;-65
2022/06/21 00:58:36;;;;;;;3.13;1.33;;;;;;;14.45;100.00;101713.75;5027378;28;20505;-63
2022/06/21 01:01:21;;;;;;;2.03;1.20;;;;;;;14.61;100.00;101712.59;5026713;28;20442;-63
2022/06/21 01:04:14;;;;;;;3.40;1.30;;;;;;;14.59;100.00;101714.66;5027256;28;20196;-63
2022/06/21 01:06:44;;;;;;;6.63;0.97;;;;;;;14.55;100.00;101709.88;5025657;28;21024;-64
2022/06/21 01:09:22;;;;;;;5.93;1.67;;;;;;;14.50;100.00;101715.03;5026665;28;20474;-64
2022/06/21 01:11:53;;;;;;;2.93;1.23;;;;;;;14.49;100.00;101703.38;5020478;28;21018;-64
2022/06/21 01:14:21;;;;;;;3.57;1.40;;;;;;;14.38;100.00;101696.72;5023482;28;20439;-64
2022/06/21 01:16:47;;;;;;;3.33;1.50;;;;;;;14.41;100.00;101714.38;5025483;28;21229;-64
2022/06/21 01:19:39;;;;;;;6.57;1.30;;;;;;;14.43;100.00;101706.91;5025463;28;20444;-64
2022/06/21 01:22:34;;;;;;;3.40;1.30;;;;;;;14.40;100.00;101704.59;5026249;28;20436;-64
2022/06/21 01:25:16;;;;;;;2.63;1.40;;;;;;;14.41;100.00;101696.31;5016643;28;20459;-63
2022/06/21 01:27:42;;;;;;;5.13;1.30;;;;;;;14.29;100.00;101689.84;5024829;28;20554;-63
2022/06/21 01:30:09;;;;;;;3.37;1.37;;;;;;;13.73;100.00;101595.63;5022667;28;20459;-63
2022/06/21 01:32:35;;;;;;;5.23;1.27;;;;;;;14.17;100.00;101689.56;5027305;28;20825;-63
2022/06/21 01:35:07;;;;;;;4.17;1.53;;;;;;;14.16;100.00;101685.22;5027497;28;20475;-63
2022/06/21 01:37:33;;;;;;;4.90;1.50;;;;;;;14.11;100.00;101689.56;5025755;28;20466;-64
2022/06/21 01:40:06;;;;;;;7.43;1.57;;;;;;;14.02;100.00;101681.63;5025106;28;20481;-64
2022/06/21 01:42:40;;;;;;;2.07;1.23;;;;;;;13.98;100.00;101683.09;5024518;28;20657;-63
2022/06/21 01:45:12;;;;;;;3.37;1.33;;;;;;;13.96;100.00;101689.69;5023593;28;20498;-64
2022/06/21 01:47:52;;;;;;;2.83;1.10;;;;;;;13.91;100.00;101682.19;5024185;28;20939;-64
2022/06/21 01:50:20;;;;;;;3.80;1.40;;;;;;;13.96;100.00;101690.53;5023571;28;20450;-64
2022/06/21 01:52:50;;;;;;;3.43;1.20;;;;;;;13.82;100.00;101666.41;5021741;28;20450;-64
2022/06/21 01:55:18;;;;;;;5.80;1.73;;;;;;;14.05;100.00;101688.50;5024582;28;20544;-64
2022/06/21 01:57:45;;;;;;;5.50;1.50;;;;;;;14.02;100.00;101691.59;5024837;28;20451;-64
2022/06/21 02:00:11;;;;;;;2.30;1.23;;;;;;;13.95;100.00;101696.97;5026938;28;20435;-64
2022/06/21 02:02:43;;;;;;;4.77;1.30;;;;;;;13.99;100.00;101692.81;5025594;28;20447;-63
2022/06/21 02:05:18;;;;;;;4.30;1.53;;;;;;;13.90;100.00;101677.03;5023027;28;20544;-64
2022/06/21 02:07:47;;;;;;;5.23;1.60;;;;;;;13.96;100.00;101677.03;5022214;28;20728;-63
2022/06/21 02:10:18;;;;;;;5.73;2.03;;;;;;;13.91;100.00;101674.09;5025260;28;20889;-63
2022/06/21 02:12:52;;;;;;;2.77;1.23;;;;;;;14.03;100.00;101677.09;5023625;28;20530;-63
2022/06/21 02:15:29;;;;;;;3.47;1.37;;;;;;;13.99;100.00;101675.81;5021663;28;20521;-64
2022/06/21 02:17:58;;;;;;;2.73;1.13;;;;;;;13.80;100.00;101653.13;5040541;28;20441;-64
2022/06/21 02:21:00;;;;;;;3.73;1.67;;;;;;;14.02;100.00;101667.31;5024136;28;20454;-64
2022/06/21 02:23:26;;;;;;;3.87;1.27;;;;;;;13.78;100.00;101647.94;5021791;28;20446;-64
2022/06/21 02:25:54;;;;;;;7.37;1.20;;;;;;;13.93;100.00;101665.84;5022900;28;20553;-63
2022/06/21 02:28:21;;;;;;;4.37;1.17;;;;;;;13.68;100.00;101631.31;5022979;28;20983;-64
2022/06/21 02:30:50;;;;;;;4.20;1.60;;;;;;;13.89;100.00;101659.19;5021383;28;20856;-64
2022/06/21 02:33:22;;;;;;;2.77;1.23;;;;;;;13.80;100.00;101658.53;5023637;28;20447;-63
2022/06/21 02:35:55;;;;;;;3.10;1.47;;;;;;;13.61;100.00;101648.47;5025914;28;20478;-64
2022/06/21 02:38:29;;;;;;;4.37;1.30;;;;;;;13.69;100.00;101643.75;5023615;28;20441;-64
2022/06/21 02:41:10;;;;;;;5.50;1.70;;;;;;;13.95;100.00;101659.22;5024763;28;20501;-64
2022/06/21 02:43:53;;;;;;;5.17;1.80;;;;;;;13.82;100.00;101667.22;5020209;28;20435;-65
2022/06/21 02:46:35;;;;;;;3.00;1.03;;;;;;;13.78;100.00;101674.88;5021737;28;20982;-64
2022/06/21 02:49:09;;;;;;;4.60;1.40;;;;;;;13.83;100.00;101673.44;5023676;28;20908;-64
2022/06/21 02:51:45;;;;;;;5.60;1.60;;;;;;;13.82;100.00;101669.09;5020425;28;20465;-65
2022/06/21 02:54:19;;;;;;;5.37;1.60;;;;;;;13.69;100.00;101665.31;5024859;28;20793;-64
2022/06/21 02:56:45;;;;;;;5.77;1.40;;;;;;;13.76;100.00;101662.63;5021628;28;20442;-64
2022/06/21 02:59:13;;;;;;;3.90;1.27;;;;;;;13.77;100.00;101657.06;5021660;28;20446;-64
2022/06/21 03:01:48;;;;;;;6.97;1.60;;;;;;;13.70;100.00;101647.25;5015878;28;20540;-64
2022/06/21 03:04:32;;;;;;;2.90;1.27;;;;;;;13.50;100.00;101661.44;5025908;28;20457;-64
2022/06/21 03:06:58;;;;;;;4.97;1.40;;;;;;;13.45;100.00;101666.63;5027386;28;20458;-63
2022/06/21 03:09:24;;;;;;;3.60;1.40;;;;;;;13.38;100.00;101664.91;5020056;28;20888;-63
2022/06/21 03:11:53;;;;;;;3.30;1.10;;;;;;;13.32;100.00;101667.34;5022171;28;20566;-64
2022/06/21 03:14:24;;;;;;;6.20;1.40;;;;;;;13.34;100.00;101648.31;5016968;28;20215;-64
2022/06/21 03:16:52;;;;;;;6.20;2.03;;;;;;;13.21;100.00;101659.78;5018547;28;20434;-63
2022/06/21 03:19:34;;;;;;;4.10;1.63;;;;;;;13.25;100.00;101662.91;5021361;28;20534;-64
2022/06/21 03:22:02;;;;;;;7.03;1.27;;;;;;;13.09;100.00;101658.66;5023714;28;20472;-64
2022/06/21 03:24:27;;;;;;;3.27;1.00;;;;;;;13.12;100.00;101664.47;5021296;28;20478;-64
2022/06/21 03:27:24;;;;;;;2.40;1.20;;;;;;;13.20;100.00;101665.38;5021584;28;21109;-64
2022/06/21 03:29:50;;;;;;;3.13;1.13;;;;;;;13.14;100.00;101663.47;5018337;28;20184;-64
2022/06/21 03:32:15;;;;;;;3.83;1.40;;;;;;;13.26;100.00;101670.00;5021533;28;20488;-64
2022/06/21 03:34:42;;;;;;;4.17;1.77;;;;;;;13.27;100.00;101664.41;5021532;28;20818;-64
2022/06/21 03:37:08;;;;;;;1.30;0.93;;;;;;;13.28;100.00;101660.72;5022295;28;20276;-64
2022/06/21 03:42:24;;;;;;;4.97;1.20;;;;;;;13.18;100.00;101665.56;5022982;28;20466;-64
2022/06/21 03:45:14;;;;;;;3.67;1.13;;;;;;;12.58;100.00;101561.94;5024837;28;20541;-64
2022/06/21 03:47:46;;;;;;;2.50;1.30;;;;;;;13.16;100.00;101658.69;5023888;28;20538;-64
2022/06/21 03:50:29;;;;;;;3.27;1.50;;;;;;;13.05;100.00;101663.59;5024919;28;20447;-64
2022/06/21 03:52:57;;;;;;;3.50;1.53;;;;;;;13.09;100.00;101672.13;5022096;28;20454;-64
2022/06/21 03:55:36;;;;;;;6.30;1.33;;;;;;;13.07;100.00;101672.31;5023191;28;25962;-65
2022/06/21 03:58:21;;;;;;;2.57;1.40;;;;;;;13.13;100.00;101670.69;5021109;28;20439;-64
2022/06/21 04:00:55;;;;;;;4.30;1.63;;;;;;;13.16;100.00;101673.00;5026194;28;20958;-63
2022/06/21 04:03:47;;;;;;;2.27;1.57;;;;;;;13.04;100.00;101661.91;5026591;28;20423;-65
2022/06/21 04:06:19;;;;;;;2.77;1.03;;;;;;;12.98;100.00;101667.25;5027718;28;20458;-64
2022/06/21 04:08:52;;;;;;;4.40;1.43;;;;;;;13.07;100.00;101669.59;5022484;28;20973;-64
2022/06/21 04:11:39;;;;;;;3.00;1.17;;;;;;;13.08;100.00;101682.06;5025642;28;20522;-64
2022/06/21 04:14:11;;;;;;;2.47;1.33;;;;;;;13.03;100.00;101662.13;5029880;28;20505;-64
2022/06/21 04:16:56;;;;;;;3.20;1.50;;;;;;;12.78;100.00;101624.84;5031861;28;20514;-64
2022/06/21 04:19:31;;;;;;;2.30;1.40;;;;;;;12.79;100.00;101621.13;5032216;28;20423;-64
2022/06/21 04:22:09;;;;;;;3.77;1.47;;;;;;;12.56;100.00;101589.06;5029472;28;20441;-65
2022/06/21 04:24:41;;;;;;;3.10;1.60;;;;;;;13.10;100.00;101663.88;5029124;28;20543;-64
2022/06/21 04:27:15;;;;;;;3.67;1.40;;;;;;;13.11;100.00;101662.00;5030184;28;20538;-63
2022/06/21 04:29:44;;;;;;;1.60;1.33;;;;;;;12.86;100.00;101635.47;5026421;28;20862;-64
2022/06/21 04:32:18;;;;;;;3.63;1.40;;;;;;;13.21;100.00;101672.41;5028814;28;20815;-64
2022/06/21 04:34:53;;;;;;;4.77;1.60;;;;;;;13.26;100.00;101676.22;5029599;28;20465;-64
2022/06/21 04:37:32;;;;;;;2.93;2.00;;;;;;;13.21;100.00;101646.31;5031352;28;20445;-63
2022/06/21 04:40:05;;;;;;;3.40;1.77;;;;;;;13.51;100.00;101676.63;5028863;28;20439;-64
2022/06/21 04:42:38;;;;;;;1.77;1.57;;;;;;;13.74;100.00;101676.34;5028767;28;20492;-64
2022/06/21 04:45:17;;;;;;;2.70;1.40;;;;;;;14.08;100.00;101684.56;5028053;28;20483;-64
2022/06/21 04:48:21;;;;;;;3.93;1.83;;;;;;;14.13;100.00;101679.41;5030161;28;20459;-64
2022/06/21 04:51:12;;;;;;;2.40;1.60;;;;;;;14.37;100.00;101686.94;5024160;28;20838;-64
2022/06/21 04:53:55;;;;;;;3.53;1.83;;;;;;;14.07;100.00;101637.06;5031628;28;20423;-63
2022/06/21 04:56:27;;;;;;;4.43;1.53;;;;;;;14.43;100.00;101679.91;5033108;28;20455;-64
2022/06/21 04:58:52;;;;;;;2.70;1.10;;;;;;;14.32;100.00;101672.41;5032205;28;20435;-63
2022/06/21 05:01:34;;;;;;;3.90;1.27;;;;;;;14.58;100.00;101680.63;5031776;28;20442;-63
2022/06/21 05:04:18;;;;;;;3.30;1.40;;;;;;;14.60;100.00;101686.63;5027689;28;20184;-64
2022/06/21 05:06:45;;;;;;;3.43;1.57;;;;;;;14.22;100.00;101627.75;5028991;28;20876;-63
2022/06/21 05:09:17;;;;;;;2.90;1.37;;;;;;;14.63;100.00;101666.47;5028664;28;20994;-63
2022/06/21 05:11:43;;;;;;;3.20;1.23;;;;;;;14.46;100.00;101661.47;5027800;28;20931;-63
2022/06/21 05:14:23;;;;;;;7.17;1.90;;;;;;;14.45;100.00;101646.28;5027282;28;20506;-63
2022/06/21 05:16:50;;;;;;;1.73;1.27;;;;;;;14.75;100.00;101677.50;5026385;28;20431;-63
2022/06/21 05:19:39;;;;;;;5.23;2.07;;;;;;;14.76;100.00;101682.72;5026782;28;20439;-64
2022/06/21 05:22:21;;;;;;;6.03;1.80;;;;;;;14.71;100.00;101681.66;5024274;28;20823;-64
2022/06/21 05:24:46;;;;;;;4.17;1.60;;;;;;;14.59;100.00;101666.06;5025058;28;20451;-63
2022/06/21 05:27:20;;;;;;;3.67;1.23;;;;;;;14.47;100.00;101651.47;5019616;28;20478;-63
2022/06/21 05:30:08;;;;;;;3.90;1.50;;;;;;;14.66;100.00;101693.06;5016839;28;20311;-64
2022/06/21 05:32:41;;;;;;;2.30;1.23;;;;;;;14.74;100.00;101679.38;5024866;28;20820;-63
2022/06/21 05:35:20;;;;;;;3.90;1.40;;;;;;;14.79;100.00;101679.59;5028001;28;20552;-62
2022/06/21 05:37:59;;;;;;;4.53;1.40;;;;;;;14.60;100.00;101680.38;5029080;28;20942;-62
2022/06/21 05:40:47;;;;;;;1.67;1.30;;;;;;;14.72;100.00;101670.63;5025362;28;20946;-63
2022/06/21 05:43:16;;;;;;;2.23;1.40;;;;;;;14.60;100.00;101632.63;5029376;28;20855;-63
2022/06/21 05:45:49;;;;;;;0.83;0.77;;;;;;;14.22;100.00;101586.44;5030408;28;20837;-63
2022/06/21 05:48:37;;;;;;;2.03;1.10;;;;;;;14.78;100.00;101666.28;5029407;28;20450;-63
2022/06/21 05:51:06;;;;;;;2.33;1.20;;;;;;;14.46;100.00;101642.56;5029170;28;20430;-64
2022/06/21 05:53:39;;;;;;;1.80;1.20;;;;;;;14.66;100.00;101666.91;5029186;28;20419;-64
2022/06/21 05:56:09;;;;;;;3.33;1.40;;;;;;;14.77;100.00;101684.38;5028543;28;20955;-63
2022/06/21 05:58:43;;;;;;;2.30;1.30;;;;;;;14.74;100.00;101692.88;5028686;28;21013;-63
2022/06/21 06:01:18;;;;;;;3.70;0.93;;;;;;;14.56;100.00;101644.06;5025197;28;20457;-64
2022/06/21 06:03:53;;;;;;;1.47;0.97;;;;;;;14.81;100.00;101699.13;5022676;28;20517;-64
2022/06/21 06:06:21;;;;;;;2.40;1.30;;;;;;;14.83;100.00;101694.34;5024846;28;20462;-63
2022/06/21 06:08:54;;;;;;;2.73;1.30;;;;;;;14.84;100.00;101684.38;5023557;28;20474;-63
2022/06/21 06:14:16;;;;;;;2.80;1.10;;;;;;;14.92;100.00;101685.00;5008366;28;21062;-63
2022/06/21 06:16:45;;;;;;;2.50;1.10;;;;;;;14.79;100.00;101676.06;5017578;28;20497;-63
2022/06/21 06:19:34;;;;;;;1.37;1.13;;;;;;;14.89;100.00;101692.69;5016909;28;20448;-63
2022/06/21 06:22:06;;;;;;;1.93;1.10;;;;;;;15.04;100.00;101681.69;5000693;28;20931;-62
2022/06/21 06:24:43;;;;;;;4.47;1.30;;;;;;;15.07;100.00;101682.13;5019641;28;20467;-62
2022/06/21 06:27:24;;;;;;;1.17;0.80;;;;;;;15.08;100.00;101686.47;5008131;28;20455;-62
2022/06/21 06:29:51;;;;;;;2.40;1.10;;;;;;;15.13;100.00;101675.06;5018893;28;20776;-62
2022/06/21 06:32:36;;;;;;;3.77;1.40;;;;;;;15.23;100.00;101693.53;5016819;28;20860;-62
2022/06/21 06:35:02;;;;;;;1.83;1.20;;;;;;;15.27;100.00;101692.06;5016178;28;20812;-62
2022/06/21 06:37:38;;;;;;;5.27;1.20;;;;;;;15.27;100.00;101686.66;5018395;28;20434;-62
2022/06/21 06:40:18;;;;;;;6.10;1.20;;;;;;;15.29;100.00;101679.19;5016755;28;20419;-62
2022/06/21 06:42:46;;;;;;;1.47;1.00;;;;;;;15.00;100.00;101656.94;5014826;28;20442;-62
2022/06/21 06:45:20;;;;;;;3.13;1.33;;;;;;;15.24;100.00;101693.31;5008979;28;20911;-62
2022/06/21 06:47:51;;;;;;;6.97;1.40;;;;;;;15.34;100.00;101701.00;5026351;28;20463;-63
2022/06/21 06:50:23;;;;;;;4.07;1.37;;;;;;;14.83;100.00;101593.59;5024486;28;20450;-63
2022/06/21 06:53:10;;;;;;;2.37;0.93;;;;;;;15.33;100.00;101681.25;5021595;28;20431;-63
2022/06/21 06:55:48;;;;;;;1.73;1.10;;;;;;;15.32;100.00;101684.16;5020092;28;20955;-63
2022/06/21 06:58:19;;;;;;;3.10;1.30;;;;;;;15.33;100.00;101691.22;5021365;28;20446;-64
2022/06/21 07:01:19;;;;;;;2.40;1.37;;;;;;;15.37;100.00;101692.47;5020513;28;20970;-63
2022/06/21 07:03:56;;;;;;;2.13;0.87;;;;;;;15.22;100.00;101643.25;5014288;28;20445;-62
2022/06/21 07:06:34;;;;;;;1.63;1.10;;;;;;;15.64;100.00;101685.16;5014658;28;20472;-61
2022/06/21 07:09:24;;;;;;;3.73;1.20;;;;;;;15.56;100.00;101694.34;5018951;28;20437;-62
2022/06/21 07:12:15;;;;;;;2.13;1.30;;;;;;;15.77;100.00;101695.97;5014399;28;20441;-62
2022/06/21 07:14:42;;;;;;;3.47;1.00;;;;;;;15.90;100.00;101691.56;5019570;28;20473;-63
2022/06/21 07:17:33;;;;;;;3.50;1.40;;;;;;;15.77;100.00;101689.75;5019046;28;20517;-62
2022/06/21 07:19:59;;;;;;;2.90;1.40;;;;;;;15.48;100.00;101654.00;4994045;28;20438;-63
2022/06/21 07:22:32;;;;;;;4.90;1.60;;;;;;;15.50;100.00;101688.91;5016029;28;20444;-64
2022/06/21 07:25:11;;;;;;;2.50;1.07;;;;;;;15.59;100.00;101699.31;5018980;28;22261;-63
2022/06/21 07:27:40;;;;;;;2.07;1.10;;;;;;;15.35;100.00;101626.97;5015492;28;20448;-63
2022/06/21 07:30:10;;;;;;;2.03;1.20;;;;;;;15.74;100.00;101695.56;5001922;28;20443;-64
2022/06/21 07:32:46;;;;;;;2.40;1.20;;;;;;;15.91;100.00;101693.22;5013508;28;20444;-64
2022/06/21 07:35:26;;;;;;;1.63;1.00;;;;;;;15.84;100.00;101679.72;5012584;28;20481;-64
2022/06/21 07:37:56;;;;;;;2.33;1.00;;;;;;;15.99;100.00;101685.69;5016411;28;20951;-64
2022/06/21 07:40:35;;;;;;;1.40;0.90;;;;;;;16.00;100.00;101690.06;5021863;28;20438;-65
2022/06/21 07:43:03;;;;;;;2.00;1.10;;;;;;;16.19;100.00;101692.91;5015220;28;20431;-64
2022/06/21 07:45:36;;;;;;;2.13;1.33;;;;;;;16.18;100.00;101691.25;5020970;28;20790;-64
2022/06/21 07:48:08;;;;;;;3.20;1.73;;;;;;;16.24;100.00;101696.63;5006486;28;20460;-63
2022/06/21 07:50:48;;;;;;;3.47;1.20;;;;;;;16.14;100.00;101698.97;5003734;28;20435;-62
2022/06/21 07:53:20;;;;;;;2.27;1.00;;;;;;;16.17;100.00;101703.97;5017476;28;20516;-63
2022/06/21 07:56:14;;;;;;;2.47;1.07;;;;;;;16.18;100.00;101705.59;5023164;28;20553;-64
2022/06/21 07:58:49;;;;;;;3.23;1.20;;;;;;;15.85;100.00;101667.84;5021727;28;20992;-63
2022/06/21 08:07:26;;;;;;;2.83;1.60;;;;;;;16.10;100.00;101723.97;5016228;28;20465;-63
2022/06/21 08:10:03;;;;;;;1.63;1.10;;;;;;;16.11;100.00;101703.97;5020350;28;20446;-64
2022/06/21 08:12:29;;;;;;;4.07;1.27;;;;;;;15.86;100.00;101672.22;5014483;28;20470;-63
2022/06/21 08:14:55;;;;;;;2.73;1.33;;;;;;;15.92;100.00;101733.59;5019514;28;20997;-63
2022/06/21 08:18:01;;;;;;;2.73;1.50;;;;;;;15.93;100.00;101721.72;5019801;28;20207;-63
2022/06/21 08:20:41;;;;;;;3.47;1.10;;;;;;;15.94;100.00;101725.25;5013150;28;20847;-68
2022/06/21 08:23:14;;;;;;;2.27;1.20;;;;;;;15.97;100.00;101693.22;5019679;28;20431;-67
2022/06/21 08:25:55;;;;;;;1.57;0.80;;;;;;;16.18;100.00;101711.03;5021946;28;20466;-66
2022/06/21 08:28:28;;;;;;;0.73;0.73;;;;;;;16.30;100.00;101715.75;5013052;28;20908;-67
2022/06/21 08:30:57;;;;;;;3.30;1.20;;;;;;;16.54;100.00;101716.88;5009002;28;20443;-67
2022/06/21 08:33:28;;;;;;;1.63;1.00;;;;;;;16.43;100.00;101721.94;5019590;28;20919;-67
2022/06/21 08:36:03;;;;;;;3.40;1.20;;;;;;;16.26;100.00;101713.50;5015949;28;20912;-67
2022/06/21 08:38:45;;;;;;;2.37;1.10;;;;;;;16.21;100.00;101704.34;5015609;28;20501;-68
2022/06/21 08:41:57;;;;;;;1.37;0.80;;;;;;;16.31;100.00;101720.94;5007811;28;20447;-68
2022/06/21 08:45:42;;;;;;;3.77;1.20;;;;;;;16.32;100.00;101724.50;5018157;28;20557;-67
2022/06/21 08:48:05;;;;;;;2.10;1.30;;;;;;;16.18;100.00;101713.72;5007731;28;20682;-67
2022/06/21 08:51:01;;;;;;;1.67;1.10;;;;;;;16.28;100.00;101718.66;5017770;28;20823;-69
2022/06/21 08:53:52;;;;;;;2.43;1.23;;;;;;;16.44;100.00;101720.91;5020067;28;20435;-67
2022/06/21 08:56:29;;;;;;;2.03;1.20;;;;;;;16.28;100.00;101722.19;5016062;28;20595;-67
2022/06/21 08:59:06;;;;;;;1.93;1.43;;;;;;;16.38;100.00;101723.66;5023223;28;20445;-67
2022/06/21 09:01:50;;;;;;;2.40;0.90;;;;;;;16.31;100.00;101720.13;5012652;28;20590;-68
2022/06/21 09:04:16;;;;;;;2.10;1.10;;;;;;;16.45;100.00;101722.53;5026391;28;20516;-66
2022/06/21 09:07:08;;;;;;;2.60;1.30;;;;;;;16.48;100.00;101714.00;5015443;28;20583;-65
2022/06/21 09:09:48;;;;;;;4.43;1.17;;;;;;;16.52;100.00;101713.56;5021745;28;20188;-68
2022/06/21 09:12:25;;;;;;;2.23;0.90;;;;;;;16.61;100.00;101709.56;5023040;28;20842;-67
2022/06/21 09:15:13;;;;;;;3.13;1.20;;;;;;;16.59;100.00;101709.75;5014493;28;21197;-67
2022/06/21 09:17:44;;;;;;;5.07;1.27;;;;;;;16.56;100.00;101712.09;5012463;28;20434;-67
2022/06/21 09:20:31;;;;;;;1.77;0.80;;;;;;;16.56;100.00;101688.53;5023933;28;20419;-67
2022/06/21 09:23:54;;;;;;;4.57;0.90;;;;;;;16.69;100.00;101685.75;5025679;28;20443;-67
2022/06/21 09:26:30;;;;;;;2.40;0.97;;;;;;;16.84;100.00;101696.31;4946965;29;20465;-67
2022/06/21 09:29:26;;;;;;;1.37;0.90;;;;;;;16.76;100.00;101693.00;5011439;28;20957;-68
2022/06/21 09:32:10;;;;;;;2.03;1.00;;;;;;;16.80;100.00;101684.22;5025007;28;20461;-68
2022/06/21 09:34:52;;;;;;;3.63;1.27;;;;;;;16.70;100.00;101656.78;5025375;28;20864;-67
2022/06/21 09:37:34;;;;;;;3.60;1.30;;;;;;;17.08;100.00;101691.94;5023260;28;20434;-67
2022/06/21 09:40:02;;;;;;;2.80;1.20;;;;;;;17.21;100.00;101685.56;5024991;28;20444;-67
2022/06/21 09:42:42;;;;;;;1.93;0.90;;;;;;;17.09;100.00;101688.16;5021397;28;20442;-67
2022/06/21 09:45:31;;;;;;;2.90;1.23;;;;;;;17.07;100.00;101690.28;5023935;28;20581;-68
2022/06/21 09:48:23;;;;;;;3.63;1.63;;;;;;;17.05;100.00;101683.44;5023752;28;21223;-68
2022/06/21 09:51:11;;;;;;;2.90;1.47;;;;;;;17.15;100.00;101695.44;5023787;28;20446;-67
2022/06/21 09:54:05;;;;;;;1.67;1.10;;;;;;;17.08;100.00;101701.97;5027465;28;20423;-67
2022/06/21 09:56:49;;;;;;;2.90;1.30;;;;;;;17.31;100.00;101687.78;5028326;28;20447;-69
2022/06/21 09:59:23;;;;;;;1.70;1.00;;;;;;;17.08;100.00;101686.53;5028347;28;20425;-67
2022/06/21 10:02:05;;;;;;;2.53;1.00;;;;;;;17.03;100.00;101667.38;5027443;28;20759;-67
2022/06/21 10:04:40;;;;;;;1.27;0.90;;;;;;;17.08;100.00;101693.81;5027035;28;20431;-68
2022/06/21 10:07:20;;;;;;;4.00;1.23;;;;;;;16.93;100.00;101667.06;5028885;28;20466;-68
2022/06/21 10:10:30;;;;;;;1.83;1.20;;;;;;;17.09;100.00;101681.94;5028815;28;20450;-68
2022/06/21 10:13:31;;;;;;;2.27;1.20;;;;;;;16.89;100.00;101661.25;5019283;28;20442;-68
2022/06/21 10:16:20;;;;;;;3.13;1.73;;;;;;;17.00;100.00;101672.41;5007544;28;20808;-68
2022/06/21 10:19:01;;;;;;;1.67;1.20;;;;;;;17.25;100.00;101675.13;5008484;23;20632;-69
2022/06/21 10:22:00;;;;;;;3.63;1.30;;;;;;;17.08;100.00;101667.56;4940498;28;20425;-69
2022/06/21 10:24:56;;;;;;;1.63;1.23;;;;;;;17.10;100.00;101668.16;4942116;28;20517;-69
2022/06/21 10:27:36;;;;;;;2.97;0.90;;;;;;;17.05;100.00;101669.88;4941307;28;20466;-71
2022/06/21 10:30:49;;;;;;;1.67;1.23;;;;;;;17.02;100.00;101670.31;4958618;28;20509;-69
2022/06/21 10:33:29;;;;;;;1.27;1.10;;;;;;;17.04;100.00;101662.78;4961587;28;20434;-69
2022/06/21 10:36:19;;;;;;;2.30;1.20;;;;;;;17.16;100.00;101663.75;4959653;28;20429;-71
2022/06/21 10:39:03;;;;;;;2.80;0.90;;;;;;;17.45;100.00;101661.38;4961011;28;20440;-71
2022/06/21 10:45:12;;;;;;;4.63;1.40;;;;;;;17.64;100.00;101652.19;5015078;28;20793;-71
2022/06/21 10:47:59;;;;;;;2.07;1.30;;;;;;;17.47;100.00;101680.94;4949063;28;20528;-71
2022/06/21 10:50:37;;;;;;;2.53;0.97;;;;;;;17.64;100.00;101652.19;4959977;28;20434;-71
2022/06/21 10:53:17;;;;;;;6.63;1.87;;;;;;;17.61;100.00;101641.78;4959154;28;20490;-69
2022/06/21 10:59:19;;;;;;;4.37;1.57;;;;;;;17.73;100.00;101639.97;4955526;28;20464;-70
2022/06/21 11:01:58;;;;;;;2.30;1.30;;;;;;;17.85;100.00;101623.81;4949720;28;20507;-69
2022/06/21 11:04:56;;;;;;;4.57;1.60;;;;;;;17.92;100.00;101631.84;4958074;28;20449;-69
2022/06/21 11:07:30;;;;;;;2.90;1.77;;;;;;;17.89;100.00;101635.03;5027732;28;20980;-69
2022/06/21 11:10:10;;;;;;;2.33;1.07;;;;;;;18.00;100.00;101621.50;4952843;28;20480;-69
2022/06/21 11:13:04;;;;;;;2.00;1.43;;;;;;;18.17;100.00;101616.28;4957480;28;20445;-70
2022/06/21 11:16:17;;;;;;;3.87;1.47;;;;;;;17.93;100.00;101619.94;4959549;28;20477;-70
2022/06/21 11:18:58;;;;;;;3.53;1.70;;;;;;;17.95;100.00;101618.66;5020465;28;21112;-69
2022/06/21 11:21:37;;;;;;;3.43;1.40;;;;;;;18.31;100.00;101627.75;4963542;28;21041;-70
2022/06/21 11:24:06;;;;;;;2.33;1.60;;;;;;;18.25;100.00;101624.09;4957658;28;20842;-69
2022/06/21 11:26:57;;;;;;;3.37;1.40;;;;;;;18.48;100.00;101622.50;4959598;28;20422;-70
2022/06/21 11:29:39;;;;;;;3.23;1.60;;;;;;;18.17;100.00;101624.41;4957994;28;20453;-69
2022/06/21 11:32:04;;;;;;;3.27;1.40;;;;;;;18.29;100.00;101611.72;4960571;28;20422;-70
2022/06/21 11:34:38;;;;;;;4.57;1.50;;;;;;;18.10;100.00;101611.97;4958094;28;20449;-69
2022/06/21 11:37:19;;;;;;;1.53;1.00;;;;;;;18.09;100.00;101611.16;4957762;28;20187;-68
2022/06/21 11:40:00;;;;;;;2.40;1.20;;;;;;;18.36;100.00;101605.34;4959815;28;20496;-69
2022/06/21 11:42:38;;;;;;;2.60;1.40;;;;;;;18.33;100.00;101606.63;4959253;28;20473;-69
2022/06/21 11:45:30;;;;;;;1.00;0.83;;;;;;;18.59;100.00;101604.56;4954268;28;20433;-68
2022/06/21 11:48:05;;;;;;;1.77;1.10;;;;;;;18.66;100.00;101600.69;4956326;28;20906;-69
2022/06/21 11:51:11;;;;;;;1.87;1.23;;;;;;;18.76;100.00;101602.84;4959499;28;20460;-71
2022/06/21 11:53:55;;;;;;;1.87;1.10;;;;;;;18.88;100.00;101590.09;4966682;28;20926;-70
2022/06/21 11:56:29;;;;;;;2.63;1.50;;;;;;;18.62;100.00;101590.53;4960410;28;21025;-70
2022/06/21 11:59:02;;;;;;;3.07;1.77;;;;;;;18.91;100.00;101597.78;4957273;28;20461;-70
2022/06/21 12:02:03;;;;;;;2.90;1.30;;;;;;;18.88;100.00;101595.53;4959876;28;20469;-70
2022/06/21 12:04:54;;;;;;;2.10;1.20;;;;;;;18.94;100.00;101585.59;4986378;28;20476;-71
2022/06/21 12:07:40;;;;;;;3.57;2.00;;;;;;;18.80;100.00;101586.91;4958363;28;20566;-70
2022/06/21 12:10:11;;;;;;;3.07;1.80;;;;;;;18.83;100.00;101586.44;4956848;28;20962;-70
2022/06/21 12:12:54;;;;;;;2.00;1.50;;;;;;;18.84;100.00;101577.22;4955988;28;20840;-70
2022/06/21 12:15:51;;;;;;;3.17;1.17;;;;;;;18.88;100.00;101584.66;4956049;28;21229;-70
2022/06/21 12:18:24;;;;;;;2.00;1.70;;;;;;;18.94;100.00;101578.28;4961087;28;20513;-70
2022/06/21 12:20:58;;;;;;;2.73;1.10;;;;;;;19.29;100.00;101568.44;4958674;28;21283;-70
2022/06/21 12:23:44;;;;;;;3.17;1.40;;;;;;;19.07;100.00;101577.22;4958379;28;20470;-70